Terminal Aerodrome Forecast
Issued by NWS Billings, MT

Home | Current Version | Previous Version | Text Only | Print | Product List | Glossary On
Versions: 1 2 3 4 5 6 7 8 9 10 11 12 13 14 15 16 17
000
FTUS45 KBYZ 260522
TAFSHR
TAF
KSHR 260522Z 2606/2706 28006KT 6SM -RA BR SCT015 OVC025
     FM260800 30005KT P6SM VCSH BKN025
     FM261000 VRB05KT P6SM VCFG FEW005 SCT025
     FM261500 VRB04KT P6SM SCT080=

USA.gov is the U.S. government's official web portal to all federal, state and local government web resources and services.